Time,TemperatureF,DewpointF,PressureIn,WindDirection,WindDirectionDegrees,WindSpeedMPH,WindSpeedGustMPH,Humidity,HourlyPrecipIn,Conditions,Clouds,dailyrainin,SoftwareType,DateUTC
2013-03-27 00:00:00,41.6,38.3,29.91,NE,41,0.0,0.0,88,0.00,,---,0.00,VWS V14.01,2013-03-27 07:00:00,
2013-03-27 00:05:00,41.6,38.3,29.91,NE,41,0.0,0.0,88,0.00,,---,0.00,VWS V14.01,2013-03-27 07:05:00,
2013-03-27 00:10:00,41.6,38.3,29.91,NE,41,0.0,0.0,88,0.00,,---,0.00,VWS V14.01,2013-03-27 07:10:00,
2013-03-27 00:15:00,41.5,38.2,29.91,NE,41,0.0,0.0,88,0.00,,---,0.00,VWS V14.01,2013-03-27 07:15:00,
2013-03-27 00:20:00,41.3,38.0,29.91,NE,41,0.0,0.0,88,0.00,,---,0.00,VWS V14.01,2013-03-27 07:20:00,
2013-03-27 00:24:00,41.1,38.1,29.91,NE,41,0.0,0.0,89,0.00,,---,0.00,VWS V14.01,2013-03-27 07:24:00,
2013-03-27 00:29:00,41.0,38.0,29.91,NE,41,0.0,0.0,89,0.00,,---,0.00,VWS V14.01,2013-03-27 07:29:00,
2013-03-27 00:30:00,41.0,38.0,29.91,NE,41,0.0,0.0,89,0.00,,---,0.00,VWS V14.01,2013-03-27 07:30:00,
2013-03-27 00:34:00,41.0,38.0,29.91,NE,41,0.0,0.0,89,0.00,,---,0.00,VWS V14.01,2013-03-27 07:34:00,
2013-03-27 00:39:00,41.0,38.3,29.91,NE,41,0.0,0.0,90,0.00,,---,0.00,VWS V14.01,2013-03-27 07:39:00,
2013-03-27 00:44:00,41.0,38.0,29.91,NE,41,0.0,0.0,89,0.00,,---,0.00,VWS V14.01,2013-03-27 07:44:00,
2013-03-27 00:45:00,41.0,38.0,29.91,NE,41,0.0,0.0,89,0.00,,---,0.00,VWS V14.01,2013-03-27 07:45:00,
2013-03-27 00:49:00,41.0,38.0,29.91,NE,41,0.0,0.0,89,0.00,,---,0.00,VWS V14.01,2013-03-27 07:49:00,
2013-03-27 00:54:00,41.0,39.4,29.91,NE,41,1.0,1.0,94,0.00,,---,0.00,VWS V14.01,2013-03-27 07:54:00,
2013-03-27 00:59:00,40.9,37.6,29.91,NE,41,3.0,4.0,88,0.00,,---,0.00,VWS V14.01,2013-03-27 07:59:00,
2013-03-27 01:00:00,41.0,38.0,29.91,NE,41,2.0,4.0,89,0.00,,---,0.00,VWS V14.01,2013-03-27 08:00:00,
2013-03-27 01:04:00,40.7,37.4,29.91,NE,41,2.0,4.0,88,0.00,,---,0.00,VWS V14.01,2013-03-27 08:04:00,
2013-03-27 01:09:00,40.5,37.5,29.90,NE,41,4.0,4.0,89,0.00,,---,0.00,VWS V14.01,2013-03-27 08:09:00,
2013-03-27 01:14:00,40.6,37.6,29.90,NNE,24,4.0,5.0,89,0.00,,---,0.00,VWS V14.01,2013-03-27 08:14:00,
2013-03-27 01:15:00,40.6,37.6,29.90,NNE,24,5.0,5.0,89,0.00,,---,0.00,VWS V14.01,2013-03-27 08:15:00,
2013-03-27 01:19:00,40.7,37.7,29.90,NNE,21,3.0,5.0,89,0.00,,---,0.00,VWS V14.01,2013-03-27 08:19:00,
2013-03-27 01:24:00,40.5,37.5,29.90,NNE,21,0.0,5.0,89,0.00,,---,0.00,VWS V14.01,2013-03-27 08:24:00,
2013-03-27 01:29:00,40.4,37.4,29.90,NNE,21,0.0,5.0,89,0.00,,---,0.00,VWS V14.01,2013-03-27 08:29:00,
2013-03-27 01:30:00,40.4,37.4,29.90,NNE,21,0.0,5.0,89,0.00,,---,0.00,VWS V14.01,2013-03-27 08:30:00,
2013-03-27 01:34:00,40.2,37.5,29.91,NNE,21,0.0,0.0,90,0.00,,---,0.00,VWS V14.01,2013-03-27 08:34:00,
2013-03-27 01:39:00,40.1,37.4,29.91,NNE,21,0.0,0.0,90,0.00,,---,0.00,VWS V14.01,2013-03-27 08:39:00,
2013-03-27 01:44:00,40.0,37.6,29.91,NNE,21,0.0,0.0,91,0.00,,---,0.00,VWS V14.01,2013-03-27 08:44:00,
2013-03-27 01:45:00,40.0,37.6,29.91,NNE,22,0.0,0.0,91,0.00,,---,0.00,VWS V14.01,2013-03-27 08:45:00,
2013-03-27 01:49:00,39.9,37.5,29.90,NNE,28,3.0,5.0,91,0.00,,---,0.00,VWS V14.01,2013-03-27 08:49:00,
2013-03-27 01:54:00,39.9,37.8,29.90,NNE,26,3.0,5.0,92,0.00,,---,0.00,VWS V14.01,2013-03-27 08:54:00,
2013-03-27 01:59:00,39.9,37.8,29.90,NNE,26,3.0,5.0,92,0.00,,---,0.00,VWS V14.01,2013-03-27 08:59:00,
2013-03-27 02:00:00,39.9,37.8,29.90,NNE,26,3.0,5.0,92,0.00,,---,0.00,VWS V14.01,2013-03-27 09:00:00,
2013-03-27 02:04:00,39.9,37.5,29.90,NNE,25,0.0,3.0,91,0.00,,---,0.00,VWS V14.01,2013-03-27 09:04:00,
2013-03-27 02:09:00,39.6,37.2,29.90,NNE,26,0.0,3.0,91,0.00,,---,0.00,VWS V14.01,2013-03-27 09:09:00,
2013-03-27 02:14:00,39.2,36.8,29.90,NNE,25,0.0,3.0,91,0.00,,---,0.00,VWS V14.01,2013-03-27 09:14:00,
2013-03-27 02:15:00,39.1,36.7,29.90,NNE,26,0.0,3.0,91,0.00,,---,0.00,VWS V14.01,2013-03-27 09:15:00,
2013-03-27 02:19:00,39.0,36.6,29.90,NNE,25,0.0,0.0,91,0.00,,---,0.00,VWS V14.01,2013-03-27 09:19:00,
2013-03-27 02:24:00,38.6,36.2,29.90,NE,49,0.0,0.0,91,0.00,,---,0.00,VWS V14.01,2013-03-27 09:24:00,
2013-03-27 02:29:00,38.3,35.9,29.90,ENE,72,0.0,0.0,91,0.00,,---,0.00,VWS V14.01,2013-03-27 09:29:00,
2013-03-27 02:30:00,38.2,35.8,29.90,ESE,107,0.0,0.0,91,0.00,,---,0.00,VWS V14.01,2013-03-27 09:30:00,
2013-03-27 02:34:00,38.0,35.9,29.90,East,84,0.0,0.0,92,0.00,,---,0.00,VWS V14.01,2013-03-27 09:34:00,
2013-03-27 02:39:00,37.7,35.6,29.90,East,84,0.0,0.0,92,0.00,,---,0.00,VWS V14.01,2013-03-27 09:39:00,
2013-03-27 02:44:00,37.5,35.4,29.89,East,84,0.0,0.0,92,0.00,,---,0.00,VWS V14.01,2013-03-27 09:44:00,
2013-03-27 02:45:00,37.5,35.4,29.89,East,84,0.0,0.0,92,0.00,,---,0.00,VWS V14.01,2013-03-27 09:45:00,
2013-03-27 02:49:00,37.4,35.3,29.89,East,83,0.0,0.0,92,0.00,,---,0.00,VWS V14.01,2013-03-27 09:49:00,
2013-03-27 02:54:00,37.4,35.6,29.89,East,83,0.0,0.0,93,0.00,,---,0.00,VWS V14.01,2013-03-27 09:54:00,
2013-03-27 02:59:00,37.5,35.7,29.89,East,84,0.0,0.0,93,0.00,,---,0.00,VWS V14.01,2013-03-27 09:59:00,
2013-03-27 03:00:00,37.4,35.6,29.89,East,84,0.0,0.0,93,0.00,,---,0.00,VWS V14.01,2013-03-27 10:00:00,
2013-03-27 03:04:00,37.3,35.5,29.89,East,84,0.0,0.0,93,0.00,,---,0.00,VWS V14.01,2013-03-27 10:04:00,
2013-03-27 03:09:00,37.1,35.0,29.90,ESE,110,4.0,4.0,92,0.00,,---,0.00,VWS V14.01,2013-03-27 10:09:00,
2013-03-27 03:14:00,36.2,34.1,29.90,SSE,149,0.0,7.0,92,0.00,,---,0.00,VWS V14.01,2013-03-27 10:14:00,
2013-03-27 03:15:00,36.2,34.1,29.90,SSE,149,0.0,7.0,92,0.00,,---,0.00,VWS V14.01,2013-03-27 10:15:00,
2013-03-27 03:19:00,36.3,34.5,29.90,SSE,149,0.0,0.0,93,0.00,,---,0.00,VWS V14.01,2013-03-27 10:19:00,
2013-03-27 03:24:00,36.6,34.8,29.90,SSE,149,0.0,0.0,93,0.00,,---,0.00,VWS V14.01,2013-03-27 10:24:00,
2013-03-27 03:29:00,36.5,34.7,29.90,SSE,149,0.0,0.0,93,0.00,,---,0.00,VWS V14.01,2013-03-27 10:29:00,
2013-03-27 03:30:00,36.5,34.7,29.90,SSE,149,0.0,0.0,93,0.00,,---,0.00,VWS V14.01,2013-03-27 10:30:00,
2013-03-27 03:34:00,36.1,34.3,29.90,SSE,149,0.0,0.0,93,0.00,,---,0.00,VWS V14.01,2013-03-27 10:34:00,
2013-03-27 03:39:00,35.2,33.1,29.90,SSE,149,0.0,0.0,92,0.00,,---,0.00,VWS V14.01,2013-03-27 10:39:00,
2013-03-27 03:44:00,34.4,32.3,29.90,SSE,149,0.0,0.0,92,0.00,,---,0.00,VWS V14.01,2013-03-27 10:44:00,
2013-03-27 03:45:00,34.4,32.3,29.90,SSE,149,0.0,0.0,92,0.00,,---,0.00,VWS V14.01,2013-03-27 10:45:00,
2013-03-27 03:49:00,34.4,32.6,29.90,SSE,149,4.0,5.0,93,0.00,,---,0.00,VWS V14.01,2013-03-27 10:49:00,
2013-03-27 03:54:00,34.4,32.6,29.90,SSE,149,2.0,5.0,93,0.00,,---,0.00,VWS V14.01,2013-03-27 10:54:00,
2013-03-27 03:59:00,34.4,32.6,29.90,SE,144,0.0,5.0,93,0.00,,---,0.00,VWS V14.01,2013-03-27 10:59:00,
2013-03-27 04:00:00,34.4,32.6,29.90,SE,130,0.0,5.0,93,0.00,,---,0.00,VWS V14.01,2013-03-27 11:00:00,
2013-03-27 04:04:00,34.8,33.2,29.90,SE,130,0.0,0.0,94,0.00,,---,0.00,VWS V14.01,2013-03-27 11:04:00,
2013-03-27 04:09:00,35.0,33.5,29.90,SE,130,0.0,0.0,94,0.00,,---,0.00,VWS V14.01,2013-03-27 11:09:00,
2013-03-27 04:14:00,35.2,33.7,29.90,SE,130,0.0,0.0,94,0.00,,---,0.00,VWS V14.01,2013-03-27 11:14:00,
2013-03-27 04:15:00,35.1,33.5,29.90,SE,130,0.0,0.0,94,0.00,,---,0.00,VWS V14.01,2013-03-27 11:15:00,
2013-03-27 04:19:00,34.9,33.3,29.90,SE,130,0.0,0.0,94,0.00,,---,0.00,VWS V14.01,2013-03-27 11:19:00,
2013-03-27 04:24:00,35.0,33.5,29.89,SE,130,0.0,0.0,94,0.00,,---,0.00,VWS V14.01,2013-03-27 11:24:00,
2013-03-27 04:29:00,34.7,33.2,29.89,SE,130,0.0,0.0,94,0.00,,---,0.00,VWS V14.01,2013-03-27 11:29:00,
2013-03-27 04:30:00,34.8,33.2,29.89,NE,56,0.0,0.0,94,0.00,,---,0.00,VWS V14.01,2013-03-27 11:30:00,
2013-03-27 04:34:00,34.0,32.5,29.89,ENE,57,4.0,4.0,94,0.00,,---,0.00,VWS V14.01,2013-03-27 11:34:00,
2013-03-27 04:39:00,33.2,31.4,29.89,NE,55,2.0,4.0,93,0.00,,---,0.00,VWS V14.01,2013-03-27 11:39:00,
2013-03-27 04:44:00,33.1,31.6,29.89,NE,55,0.0,4.0,94,0.00,,---,0.00,VWS V14.01,2013-03-27 11:44:00,
2013-03-27 04:45:00,33.1,31.6,29.89,NE,55,0.0,4.0,94,0.00,,---,0.00,VWS V14.01,2013-03-27 11:45:00,
2013-03-27 04:49:00,33.1,31.6,29.90,NE,55,0.0,0.0,94,0.00,,---,0.00,VWS V14.01,2013-03-27 11:49:00,
2013-03-27 04:54:00,33.4,31.9,29.90,NE,37,4.0,6.0,94,0.00,,---,0.00,VWS V14.01,2013-03-27 11:54:00,
2013-03-27 04:59:00,33.8,32.3,29.90,NE,36,4.0,6.0,94,0.00,,---,0.00,VWS V14.01,2013-03-27 11:59:00,
2013-03-27 05:00:00,33.7,32.2,29.90,NE,41,4.0,6.0,94,0.00,,---,0.00,VWS V14.01,2013-03-27 12:00:00,
2013-03-27 05:04:00,33.7,32.2,29.90,ENE,62,4.0,5.0,94,0.00,,---,0.00,VWS V14.01,2013-03-27 12:04:00,
2013-03-27 05:09:00,33.9,32.4,29.90,NE,51,1.0,5.0,94,0.00,,---,0.00,VWS V14.01,2013-03-27 12:09:00,
2013-03-27 05:14:00,33.7,32.2,29.90,NE,51,0.0,5.0,94,0.00,,---,0.00,VWS V14.01,2013-03-27 12:14:00,
2013-03-27 05:15:00,33.7,32.2,29.90,NE,51,0.0,5.0,94,0.00,,---,0.00,VWS V14.01,2013-03-27 12:15:00,
2013-03-27 05:19:00,33.7,32.2,29.90,NE,51,0.0,0.0,94,0.00,,---,0.00,VWS V14.01,2013-03-27 12:19:00,
2013-03-27 05:24:00,33.3,31.8,29.90,NE,51,0.0,0.0,94,0.00,,---,0.00,VWS V14.01,2013-03-27 12:24:00,
2013-03-27 05:29:00,33.0,31.5,29.90,NE,51,0.0,0.0,94,0.00,,---,0.00,VWS V14.01,2013-03-27 12:29:00,
2013-03-27 05:30:00,32.9,31.4,29.90,NE,51,0.0,0.0,94,0.00,,---,0.00,VWS V14.01,2013-03-27 12:30:00,
2013-03-27 05:34:00,32.0,30.2,29.91,NE,51,0.0,0.0,93,0.00,,---,0.00,VWS V14.01,2013-03-27 12:34:00,
2013-03-27 05:39:00,31.1,29.3,29.90,NE,51,0.0,0.0,93,0.00,,---,0.00,VWS V14.01,2013-03-27 12:39:00,
2013-03-27 05:44:00,30.3,28.5,29.91,NE,51,0.0,0.0,93,0.00,,---,0.00,VWS V14.01,2013-03-27 12:44:00,
2013-03-27 05:45:00,30.2,28.4,29.91,NE,51,0.0,0.0,93,0.00,,---,0.00,VWS V14.01,2013-03-27 12:45:00,
2013-03-27 05:49:00,30.0,28.2,29.91,NE,51,0.0,0.0,93,0.00,,---,0.00,VWS V14.01,2013-03-27 12:49:00,
2013-03-27 05:54:00,29.7,27.9,29.91,NE,51,0.0,0.0,93,0.00,,---,0.00,VWS V14.01,2013-03-27 12:54:00,
2013-03-27 05:59:00,29.7,27.9,29.91,NE,51,0.0,0.0,93,0.00,,---,0.00,VWS V14.01,2013-03-27 12:59:00,
2013-03-27 06:00:00,29.7,28.2,29.91,NE,51,0.0,0.0,94,0.00,,---,0.00,VWS V14.01,2013-03-27 13:00:00,
2013-03-27 06:04:00,29.7,28.2,29.91,NE,51,0.0,0.0,94,0.00,,---,0.00,VWS V14.01,2013-03-27 13:04:00,
2013-03-27 06:09:00,30.1,28.6,29.91,NE,51,0.0,0.0,94,0.00,,---,0.00,VWS V14.01,2013-03-27 13:09:00,
2013-03-27 06:14:00,30.3,28.8,29.91,NE,51,0.0,0.0,94,0.00,,---,0.00,VWS V14.01,2013-03-27 13:14:00,
2013-03-27 06:15:00,30.4,28.9,29.90,NE,51,0.0,0.0,94,0.00,,---,0.00,VWS V14.01,2013-03-27 13:15:00,
2013-03-27 06:19:00,30.8,29.3,29.91,NE,51,0.0,0.0,94,0.00,,---,0.00,VWS V14.01,2013-03-27 13:19:00,
2013-03-27 06:24:00,31.4,29.9,29.91,NE,51,0.0,0.0,94,0.00,,---,0.00,VWS V14.01,2013-03-27 13:24:00,
2013-03-27 06:29:00,31.7,30.2,29.90,NE,51,0.0,0.0,94,0.00,,---,0.00,VWS V14.01,2013-03-27 13:29:00,
2013-03-27 06:30:00,31.7,30.2,29.91,NE,51,0.0,0.0,94,0.00,,---,0.00,VWS V14.01,2013-03-27 13:30:00,
2013-03-27 06:34:00,31.9,30.4,29.91,NE,51,0.0,0.0,94,0.00,,---,0.00,VWS V14.01,2013-03-27 13:34:00,
2013-03-27 06:39:00,32.0,30.7,29.90,NE,51,0.0,0.0,95,0.00,,---,0.00,VWS V14.01,2013-03-27 13:39:00,
2013-03-27 06:44:00,31.9,30.6,29.90,NE,51,0.0,0.0,95,0.00,,---,0.00,VWS V14.01,2013-03-27 13:44:00,
2013-03-27 06:45:00,31.9,30.6,29.91,NE,51,0.0,0.0,95,0.00,,---,0.00,VWS V14.01,2013-03-27 13:45:00,
2013-03-27 06:49:00,31.7,30.4,29.91,NE,51,2.0,2.0,95,0.00,,---,0.00,VWS V14.01,2013-03-27 13:49:00,
2013-03-27 06:54:00,31.8,30.5,29.91,NNE,15,4.0,5.0,95,0.00,,---,0.00,VWS V14.01,2013-03-27 13:54:00,
2013-03-27 06:59:00,31.7,30.4,29.91,NNE,22,0.0,5.0,95,0.00,,---,0.00,VWS V14.01,2013-03-27 13:59:00,
2013-03-27 07:00:00,31.7,30.4,29.91,NNE,22,0.0,5.0,95,0.00,,---,0.00,VWS V14.01,2013-03-27 14:00:00,
2013-03-27 07:04:00,31.5,30.2,29.91,NNE,22,0.0,0.0,95,0.00,,---,0.00,VWS V14.01,2013-03-27 14:04:00,
2013-03-27 07:09:00,31.4,30.1,29.91,NNE,22,0.0,0.0,95,0.00,,---,0.00,VWS V14.01,2013-03-27 14:09:00,
2013-03-27 07:14:00,31.1,29.6,29.91,NNE,22,0.0,0.0,94,0.00,,---,0.00,VWS V14.01,2013-03-27 14:14:00,
2013-03-27 07:15:00,30.9,29.6,29.91,NNE,22,0.0,0.0,95,0.00,,---,0.00,VWS V14.01,2013-03-27 14:15:00,
2013-03-27 07:19:00,30.6,29.1,29.91,NNE,22,0.0,0.0,94,0.00,,---,0.00,VWS V14.01,2013-03-27 14:19:00,
2013-03-27 07:24:00,30.3,28.8,29.91,NNE,22,0.0,0.0,94,0.00,,---,0.00,VWS V14.01,2013-03-27 14:24:00,
2013-03-27 07:29:00,30.4,28.9,29.91,NNE,22,2.0,3.0,94,0.00,,---,0.00,VWS V14.01,2013-03-27 14:29:00,
2013-03-27 07:30:00,30.4,28.9,29.91,NNE,22,1.0,3.0,94,0.00,,---,0.00,VWS V14.01,2013-03-27 14:30:00,
2013-03-27 07:34:00,30.6,29.1,29.91,NNE,22,0.0,1.0,94,0.00,,---,0.00,VWS V14.01,2013-03-27 14:34:00,
2013-03-27 07:38:00,31.1,29.8,29.91,NNE,22,0.0,1.0,95,0.00,,---,0.00,VWS V14.01,2013-03-27 14:38:00,
2013-03-27 07:43:00,31.4,30.1,29.91,NNE,22,0.0,1.0,95,0.00,,---,0.00,VWS V14.01,2013-03-27 14:43:00,
2013-03-27 07:45:00,31.4,30.1,29.91,NNE,22,0.0,1.0,95,0.00,,---,0.00,VWS V14.01,2013-03-27 14:45:00,
2013-03-27 07:48:00,31.5,30.2,29.91,NNE,22,0.0,0.0,95,0.00,,---,0.00,VWS V14.01,2013-03-27 14:48:00,
2013-03-27 07:53:00,31.8,30.5,29.91,NNE,22,0.0,0.0,95,0.00,,---,0.00,VWS V14.01,2013-03-27 14:53:00,
2013-03-27 07:58:00,32.5,31.2,29.91,NNE,22,0.0,0.0,95,0.00,,---,0.00,VWS V14.01,2013-03-27 14:58:00,
2013-03-27 08:00:00,32.6,31.3,29.91,NNE,22,0.0,0.0,95,0.00,,---,0.00,VWS V14.01,2013-03-27 15:00:00,
2013-03-27 08:03:00,33.2,31.9,29.91,NNE,22,0.0,0.0,95,0.00,,---,0.00,VWS V14.01,2013-03-27 15:03:00,
2013-03-27 08:08:00,34.1,32.8,29.91,NNE,22,0.0,0.0,95,0.00,,---,0.00,VWS V14.01,2013-03-27 15:08:00,
2013-03-27 08:13:00,35.0,33.7,29.91,NNE,22,0.0,0.0,95,0.00,,---,0.00,VWS V14.01,2013-03-27 15:13:00,
2013-03-27 08:15:00,35.2,33.9,29.91,NNE,22,0.0,0.0,95,0.00,,---,0.00,VWS V14.01,2013-03-27 15:15:00,
2013-03-27 08:18:00,35.9,34.6,29.91,NNE,22,0.0,0.0,95,0.00,,---,0.00,VWS V14.01,2013-03-27 15:18:00,
2013-03-27 08:23:00,36.6,35.6,29.91,NNE,22,0.0,0.0,96,0.00,,---,0.00,VWS V14.01,2013-03-27 15:23:00,
2013-03-27 08:28:00,37.6,36.6,29.91,NNE,22,0.0,0.0,96,0.00,,---,0.00,VWS V14.01,2013-03-27 15:28:00,
2013-03-27 08:30:00,37.6,36.6,29.91,NNE,22,0.0,0.0,96,0.00,,---,0.00,VWS V14.01,2013-03-27 15:30:00,
2013-03-27 08:33:00,37.4,36.1,29.91,NE,36,0.0,0.0,95,0.00,,---,0.00,VWS V14.01,2013-03-27 15:33:00,
2013-03-27 08:38:00,37.3,36.0,29.91,NE,36,0.0,0.0,95,0.00,,---,0.00,VWS V14.01,2013-03-27 15:38:00,
2013-03-27 08:43:00,37.7,36.1,29.91,NE,36,0.0,0.0,94,0.00,,---,0.00,VWS V14.01,2013-03-27 15:43:00,
2013-03-27 08:45:00,37.8,36.5,29.91,NE,36,0.0,0.0,95,0.00,,---,0.00,VWS V14.01,2013-03-27 15:45:00,
2013-03-27 08:48:00,37.9,36.3,29.91,West,281,0.0,1.0,94,0.00,,---,0.00,VWS V14.01,2013-03-27 15:48:00,
2013-03-27 08:53:00,38.2,36.6,29.91,SW,222,0.0,1.0,94,0.00,,---,0.00,VWS V14.01,2013-03-27 15:53:00,
2013-03-27 08:58:00,38.7,37.1,29.91,SSE,164,5.0,8.0,94,0.00,,---,0.00,VWS V14.01,2013-03-27 15:58:00,
2013-03-27 09:00:00,38.6,37.0,29.91,SSE,148,7.0,8.0,94,0.00,,---,0.00,VWS V14.01,2013-03-27 16:00:00,
2013-03-27 09:03:00,38.2,36.4,29.91,SE,142,6.0,7.0,93,0.00,,---,0.00,VWS V14.01,2013-03-27 16:03:00,
2013-03-27 09:08:00,38.2,36.4,29.91,SSE,159,4.0,8.0,93,0.00,,---,0.00,VWS V14.01,2013-03-27 16:08:00,
2013-03-27 09:13:00,38.6,36.8,29.91,SSE,159,0.0,8.0,93,0.00,,---,0.00,VWS V14.01,2013-03-27 16:13:00,
2013-03-27 09:15:00,38.7,36.8,29.91,SSE,159,0.0,8.0,93,0.00,,---,0.00,VWS V14.01,2013-03-27 16:15:00,
2013-03-27 09:18:00,39.2,37.3,29.91,SSE,159,0.0,0.0,93,0.00,,---,0.00,VWS V14.01,2013-03-27 16:18:00,
2013-03-27 09:23:00,40.1,38.2,29.91,SSE,152,0.0,0.0,93,0.00,,---,0.00,VWS V14.01,2013-03-27 16:23:00,
2013-03-27 09:28:00,41.1,39.0,29.91,SSE,151,0.0,0.0,92,0.00,,---,0.00,VWS V14.01,2013-03-27 16:28:00,
2013-03-27 09:30:00,41.4,39.0,29.91,SSE,151,0.0,0.0,91,0.00,,---,0.00,VWS V14.01,2013-03-27 16:30:00,
2013-03-27 09:33:00,42.0,39.6,29.91,SSE,150,0.0,0.0,91,0.00,,---,0.00,VWS V14.01,2013-03-27 16:33:00,
2013-03-27 09:38:00,43.3,40.3,29.91,SSE,151,0.0,0.0,89,0.00,,---,0.00,VWS V14.01,2013-03-27 16:38:00,
2013-03-27 09:43:00,44.1,40.8,29.91,SSE,151,0.0,0.0,88,0.00,,---,0.00,VWS V14.01,2013-03-27 16:43:00,
2013-03-27 09:45:00,44.2,40.6,29.91,SSE,151,0.0,0.0,87,0.00,,---,0.00,VWS V14.01,2013-03-27 16:45:00,
2013-03-27 09:48:00,44.6,40.7,29.91,SSE,150,0.0,0.0,86,0.00,,---,0.00,VWS V14.01,2013-03-27 16:48:00,
2013-03-27 09:53:00,44.9,40.7,29.91,SSE,151,0.0,0.0,85,0.00,,---,0.00,VWS V14.01,2013-03-27 16:53:00,
2013-03-27 09:58:00,45.5,41.0,29.91,SSE,151,0.0,0.0,84,0.00,,---,0.00,VWS V14.01,2013-03-27 16:58:00,
2013-03-27 10:00:00,45.7,41.2,29.91,SSE,151,0.0,0.0,84,0.00,,---,0.00,VWS V14.01,2013-03-27 17:00:00,
2013-03-27 10:03:00,45.6,40.7,29.91,SSE,150,2.0,2.0,83,0.00,,---,0.00,VWS V14.01,2013-03-27 17:03:00,
2013-03-27 10:08:00,45.4,40.5,29.91,SSE,151,0.0,2.0,83,0.00,,---,0.00,VWS V14.01,2013-03-27 17:08:00,
2013-03-27 10:13:00,45.9,40.7,29.91,SSE,151,0.0,2.0,82,0.00,,---,0.00,VWS V14.01,2013-03-27 17:13:00,
2013-03-27 10:15:00,46.0,40.8,29.91,SSE,151,0.0,2.0,82,0.00,,---,0.00,VWS V14.01,2013-03-27 17:15:00,
2013-03-27 10:18:00,46.4,41.2,29.91,SSE,150,0.0,0.0,82,0.00,,---,0.00,VWS V14.01,2013-03-27 17:18:00,
2013-03-27 10:23:00,47.1,41.9,29.91,SSE,150,0.0,0.0,82,0.00,,---,0.00,VWS V14.01,2013-03-27 17:23:00,
2013-03-27 10:28:00,47.3,41.5,29.91,SSE,151,0.0,0.0,80,0.00,,---,0.00,VWS V14.01,2013-03-27 17:28:00,
2013-03-27 10:30:00,47.3,41.5,29.91,SSE,150,0.0,0.0,80,0.00,,---,0.00,VWS V14.01,2013-03-27 17:30:00,
2013-03-27 10:33:00,47.5,41.7,29.91,SSE,150,0.0,0.0,80,0.00,,---,0.00,VWS V14.01,2013-03-27 17:33:00,
2013-03-27 10:38:00,47.8,41.6,29.90,SSE,151,0.0,0.0,79,0.00,,---,0.00,VWS V14.01,2013-03-27 17:38:00,
2013-03-27 10:43:00,48.4,41.9,29.90,ENE,67,0.0,3.0,78,0.00,,---,0.00,VWS V14.01,2013-03-27 17:43:00,
2013-03-27 10:45:00,48.5,42.0,29.90,ENE,67,0.0,3.0,78,0.00,,---,0.00,VWS V14.01,2013-03-27 17:45:00,
2013-03-27 10:48:00,48.3,41.1,29.90,ENE,61,0.0,4.0,76,0.00,,---,0.00,VWS V14.01,2013-03-27 17:48:00,
2013-03-27 10:53:00,48.6,41.7,29.90,ENE,61,0.0,4.0,77,0.00,,---,0.00,VWS V14.01,2013-03-27 17:53:00,
2013-03-27 10:58:00,49.0,41.8,29.90,ENE,61,0.0,4.0,76,0.00,,---,0.00,VWS V14.01,2013-03-27 17:58:00,
2013-03-27 11:00:00,49.2,42.6,29.90,NNE,17,0.0,4.0,78,0.00,,---,0.00,VWS V14.01,2013-03-27 18:00:00,
2013-03-27 11:03:00,49.2,41.3,29.90,NNE,15,1.0,5.0,74,0.00,,---,0.00,VWS V14.01,2013-03-27 18:03:00,
2013-03-27 11:08:00,49.4,41.5,29.90,NE,42,0.0,5.0,74,0.00,,---,0.00,VWS V14.01,2013-03-27 18:08:00,
2013-03-27 11:13:00,49.9,41.6,29.89,NE,41,0.0,5.0,73,0.00,,---,0.00,VWS V14.01,2013-03-27 18:13:00,
2013-03-27 11:15:00,50.1,41.4,29.90,NE,42,0.0,5.0,72,0.00,,---,0.00,VWS V14.01,2013-03-27 18:15:00,
2013-03-27 11:18:00,50.5,42.5,29.90,NE,42,0.0,0.0,74,0.00,,---,0.00,VWS V14.01,2013-03-27 18:18:00,
2013-03-27 11:23:00,50.7,41.7,29.89,NE,42,0.0,0.0,71,0.00,,---,0.00,VWS V14.01,2013-03-27 18:23:00,
2013-03-27 11:28:00,50.9,41.5,29.90,NE,41,0.0,0.0,70,0.00,,---,0.00,VWS V14.01,2013-03-27 18:28:00,
2013-03-27 11:30:00,51.1,41.7,29.89,NE,42,0.0,0.0,70,0.00,,---,0.00,VWS V14.01,2013-03-27 18:30:00,
2013-03-27 11:33:00,51.7,41.9,29.90,NE,42,0.0,0.0,69,0.00,,---,0.00,VWS V14.01,2013-03-27 18:33:00,
2013-03-27 11:38:00,52.5,41.9,29.89,NNE,26,3.0,6.0,67,0.00,,---,0.00,VWS V14.01,2013-03-27 18:38:00,
2013-03-27 11:43:00,52.0,41.4,29.89,NNE,32,4.0,6.0,67,0.00,,---,0.00,VWS V14.01,2013-03-27 18:43:00,
2013-03-27 11:45:00,51.7,40.7,29.89,NE,46,0.0,6.0,66,0.00,,---,0.00,VWS V14.01,2013-03-27 18:45:00,
2013-03-27 11:48:00,51.7,41.1,29.88,NNE,33,0.0,0.0,67,0.00,,---,0.00,VWS V14.01,2013-03-27 18:48:00,
2013-03-27 11:53:00,51.9,40.5,29.88,NNE,23,0.0,3.0,65,0.00,,---,0.00,VWS V14.01,2013-03-27 18:53:00,
2013-03-27 11:58:00,52.1,39.9,29.88,North,5,0.0,4.0,63,0.00,,---,0.00,VWS V14.01,2013-03-27 18:58:00,
2013-03-27 12:00:00,52.2,40.0,29.88,WSW,246,0.0,4.0,63,0.00,,---,0.00,VWS V14.01,2013-03-27 19:00:00,
2013-03-27 12:03:00,52.6,40.8,29.88,WSW,246,0.0,0.0,64,0.00,,---,0.00,VWS V14.01,2013-03-27 19:03:00,
2013-03-27 12:08:00,53.0,39.5,29.88,NNE,32,0.0,2.0,60,0.00,,---,0.00,VWS V14.01,2013-03-27 19:08:00,
2013-03-27 12:13:00,53.3,39.3,29.88,NW,319,0.0,7.0,59,0.00,,---,0.00,VWS V14.01,2013-03-27 19:13:00,
2013-03-27 12:15:00,53.5,39.5,29.88,NW,321,0.0,7.0,59,0.00,,---,0.00,VWS V14.01,2013-03-27 19:15:00,
2013-03-27 12:18:00,53.7,39.7,29.88,NW,325,0.0,3.0,59,0.00,,---,0.00,VWS V14.01,2013-03-27 19:18:00,
2013-03-27 12:23:00,53.9,39.5,29.88,WSW,244,3.0,7.0,58,0.00,,---,0.00,VWS V14.01,2013-03-27 19:23:00,
2013-03-27 12:28:00,53.2,39.3,29.88,South,187,0.0,7.0,59,0.00,,---,0.00,VWS V14.01,2013-03-27 19:28:00,
2013-03-27 12:30:00,53.0,38.6,29.88,South,171,0.0,7.0,58,0.00,,---,0.00,VWS V14.01,2013-03-27 19:30:00,
2013-03-27 12:33:00,52.9,39.0,29.88,South,170,0.0,0.0,59,0.00,,---,0.00,VWS V14.01,2013-03-27 19:33:00,
2013-03-27 12:38:00,53.5,39.5,29.87,South,170,0.0,0.0,59,0.00,,---,0.00,VWS V14.01,2013-03-27 19:38:00,
2013-03-27 12:43:00,54.4,39.5,29.87,SW,215,0.0,0.0,57,0.00,,---,0.00,VWS V14.01,2013-03-27 19:43:00,
2013-03-27 12:45:00,54.4,39.0,29.87,SW,217,0.0,0.0,56,0.00,,---,0.00,VWS V14.01,2013-03-27 19:45:00,
2013-03-27 12:48:00,54.5,39.6,29.87,SW,215,0.0,0.0,57,0.00,,---,0.00,VWS V14.01,2013-03-27 19:48:00,
2013-03-27 12:53:00,55.0,39.6,29.87,SW,234,0.0,4.0,56,0.00,,---,0.00,VWS V14.01,2013-03-27 19:53:00,
2013-03-27 12:58:00,55.1,38.8,29.87,SSE,159,0.0,4.0,54,0.00,,---,0.00,VWS V14.01,2013-03-27 19:58:00,
2013-03-27 13:00:00,55.3,39.0,29.87,NW,319,0.0,4.0,54,0.00,,---,0.00,VWS V14.01,2013-03-27 20:00:00,
2013-03-27 13:03:00,55.6,39.2,29.87,SW,222,0.0,1.0,54,0.00,,---,0.00,VWS V14.01,2013-03-27 20:03:00,
2013-03-27 13:08:00,55.8,38.5,29.87,SW,223,0.0,1.0,52,0.00,,---,0.00,VWS V14.01,2013-03-27 20:08:00,
2013-03-27 13:13:00,56.4,39.0,29.86,ENE,66,0.0,1.0,52,0.00,,---,0.00,VWS V14.01,2013-03-27 20:13:00,
2013-03-27 13:15:00,56.5,38.6,29.86,ENE,66,0.0,1.0,51,0.00,,---,0.00,VWS V14.01,2013-03-27 20:15:00,
2013-03-27 13:18:00,56.8,38.4,29.86,North,360,0.0,0.0,50,0.00,,---,0.00,VWS V14.01,2013-03-27 20:18:00,
2013-03-27 13:23:00,56.8,38.9,29.86,WNW,298,0.0,3.0,51,0.00,,---,0.00,VWS V14.01,2013-03-27 20:23:00,
2013-03-27 13:28:00,56.6,38.2,29.86,North,10,0.0,3.0,50,0.00,,---,0.00,VWS V14.01,2013-03-27 20:28:00,
2013-03-27 13:30:00,56.6,39.2,29.86,North,10,0.0,3.0,52,0.00,,---,0.00,VWS V14.01,2013-03-27 20:30:00,
2013-03-27 13:33:00,56.8,39.4,29.86,WSW,242,0.0,5.0,52,0.00,,---,0.00,VWS V14.01,2013-03-27 20:33:00,
2013-03-27 13:38:00,56.7,38.3,29.86,SSW,196,0.0,7.0,50,0.00,,---,0.00,VWS V14.01,2013-03-27 20:38:00,
2013-03-27 13:43:00,56.7,38.3,29.86,WSW,254,0.0,7.0,50,0.00,,---,0.00,VWS V14.01,2013-03-27 20:43:00,
2013-03-27 13:45:00,56.6,38.2,29.85,WSW,254,0.0,7.0,50,0.00,,---,0.00,VWS V14.01,2013-03-27 20:45:00,
2013-03-27 13:48:00,56.6,38.2,29.86,SSW,209,0.0,3.0,50,0.00,,---,0.00,VWS V14.01,2013-03-27 20:48:00,
2013-03-27 13:53:00,56.8,37.9,29.85,SSE,156,0.0,3.0,49,0.00,,---,0.00,VWS V14.01,2013-03-27 20:53:00,
2013-03-27 13:58:00,57.3,38.3,29.85,SSE,157,0.0,3.0,49,0.00,,---,0.00,VWS V14.01,2013-03-27 20:58:00,
2013-03-27 14:00:00,57.4,38.9,29.85,SSE,166,1.0,6.0,50,0.00,,---,0.00,VWS V14.01,2013-03-27 21:00:00,
2013-03-27 14:03:00,57.5,38.0,29.85,South,172,0.0,1.0,48,0.00,,---,0.00,VWS V14.01,2013-03-27 21:03:00,
2013-03-27 14:08:00,57.3,37.8,29.85,SE,145,0.0,1.0,48,0.00,,---,0.00,VWS V14.01,2013-03-27 21:08:00,
2013-03-27 14:13:00,56.9,36.9,29.85,East,94,0.0,7.0,47,0.00,,---,0.00,VWS V14.01,2013-03-27 21:13:00,
2013-03-27 14:15:00,56.5,37.1,29.85,ESE,111,0.0,7.0,48,0.00,,---,0.00,VWS V14.01,2013-03-27 21:15:00,
2013-03-27 14:18:00,56.3,37.4,29.85,ESE,111,0.0,0.0,49,0.00,,---,0.00,VWS V14.01,2013-03-27 21:18:00,
2013-03-27 14:23:00,56.3,37.4,29.85,SE,136,1.0,6.0,49,0.00,,---,0.00,VWS V14.01,2013-03-27 21:23:00,
2013-03-27 14:28:00,56.0,38.6,29.85,SSE,150,10.0,14.0,52,0.00,,---,0.00,VWS V14.01,2013-03-27 21:28:00,
2013-03-27 14:30:00,55.5,38.7,29.85,ESE,103,0.0,14.0,53,0.00,,---,0.00,VWS V14.01,2013-03-27 21:30:00,
2013-03-27 14:33:00,55.4,37.6,29.85,SSE,150,0.0,2.0,51,0.00,,---,0.00,VWS V14.01,2013-03-27 21:33:00,
2013-03-27 14:38:00,55.7,39.8,29.85,SW,225,9.0,9.0,55,0.00,,---,0.00,VWS V14.01,2013-03-27 21:38:00,
2013-03-27 14:43:00,55.1,38.8,29.85,SW,217,12.0,12.0,54,0.00,,---,0.00,VWS V14.01,2013-03-27 21:43:00,
2013-03-27 14:45:00,54.9,38.1,29.85,SSW,213,8.0,12.0,53,0.00,,---,0.00,VWS V14.01,2013-03-27 21:45:00,
2013-03-27 14:48:00,54.9,38.1,29.84,SW,233,5.0,8.0,53,0.00,,---,0.00,VWS V14.01,2013-03-27 21:48:00,
2013-03-27 14:53:00,55.0,37.7,29.84,WSW,245,10.0,11.0,52,0.00,,---,0.00,VWS V14.01,2013-03-27 21:53:00,
2013-03-27 14:58:00,55.3,38.0,29.84,WNW,288,7.0,11.0,52,0.00,,---,0.00,VWS V14.01,2013-03-27 21:58:00,
2013-03-27 15:00:00,55.4,37.6,29.84,West,268,8.0,11.0,51,0.00,,---,0.00,VWS V14.01,2013-03-27 22:00:00,
2013-03-27 15:03:00,55.4,37.1,29.84,WSW,251,0.0,10.0,50,0.00,,---,0.00,VWS V14.01,2013-03-27 22:03:00,
2013-03-27 15:08:00,55.4,38.1,29.84,WSW,257,3.0,10.0,52,0.00,,---,0.00,VWS V14.01,2013-03-27 22:08:00,
2013-03-27 15:13:00,55.6,37.8,29.84,West,259,4.0,10.0,51,0.00,,---,0.00,VWS V14.01,2013-03-27 22:13:00,
2013-03-27 15:15:00,55.7,37.4,29.84,West,276,8.0,10.0,50,0.00,,---,0.00,VWS V14.01,2013-03-27 22:15:00,
2013-03-27 15:18:00,56.2,36.8,29.83,West,271,7.0,9.0,48,0.00,,---,0.00,VWS V14.01,2013-03-27 22:18:00,
2013-03-27 15:23:00,56.6,36.6,29.83,West,265,0.0,9.0,47,0.00,,---,0.00,VWS V14.01,2013-03-27 22:23:00,
2013-03-27 15:28:00,56.7,37.8,29.83,WSW,239,4.0,9.0,49,0.00,,---,0.00,VWS V14.01,2013-03-27 22:28:00,
2013-03-27 15:30:00,56.5,36.5,29.83,West,264,0.0,9.0,47,0.00,,---,0.00,VWS V14.01,2013-03-27 22:30:00,
2013-03-27 15:33:00,56.3,36.9,29.83,West,275,0.0,0.0,48,0.00,,---,0.00,VWS V14.01,2013-03-27 22:33:00,
2013-03-27 15:38:00,55.9,36.0,29.83,West,268,0.0,5.0,47,0.00,,---,0.00,VWS V14.01,2013-03-27 22:38:00,
2013-03-27 15:43:00,55.8,35.9,29.84,West,268,0.0,5.0,47,0.00,,---,0.00,VWS V14.01,2013-03-27 22:43:00,
2013-03-27 15:45:00,55.8,35.9,29.84,SSW,195,0.0,5.0,47,0.00,,---,0.00,VWS V14.01,2013-03-27 22:45:00,
2013-03-27 15:48:00,55.8,36.4,29.84,SSW,194,0.0,0.0,48,0.00,,---,0.00,VWS V14.01,2013-03-27 22:48:00,
2013-03-27 15:53:00,53.9,41.2,29.85,SSE,161,40.0,40.0,62,0.00,,---,0.00,VWS V14.01,2013-03-27 22:53:00,
2013-03-27 15:58:00,49.5,42.6,29.86,SSE,163,24.0,40.0,77,0.00,,---,0.00,VWS V14.01,2013-03-27 22:58:00,
2013-03-27 16:00:00,48.2,42.3,29.86,South,178,26.0,40.0,80,0.00,,---,0.00,VWS V14.01,2013-03-27 23:00:00,
2013-03-27 16:03:00,47.7,43.4,29.87,SSE,167,20.0,27.0,85,0.00,,---,0.00,VWS V14.01,2013-03-27 23:03:00,
2013-03-27 16:08:00,47.5,43.2,29.88,SSW,202,8.0,27.0,85,0.01,,---,0.01,VWS V14.01,2013-03-27 23:08:00,
2013-03-27 16:13:00,46.9,42.6,29.89,SSW,213,3.0,27.0,85,0.03,,---,0.03,VWS V14.01,2013-03-27 23:13:00,
2013-03-27 16:15:00,46.8,42.8,29.89,SSW,209,0.0,27.0,86,0.03,,---,0.03,VWS V14.01,2013-03-27 23:15:00,
2013-03-27 16:18:00,46.7,42.7,29.89,South,191,2.0,8.0,86,0.04,,---,0.04,VWS V14.01,2013-03-27 23:18:00,
2013-03-27 16:23:00,46.7,42.7,29.87,South,191,2.0,8.0,86,0.04,,---,0.04,VWS V14.01,2013-03-27 23:23:00,
2013-03-27 16:28:00,46.5,42.2,29.86,West,269,13.0,17.0,85,0.06,,---,0.06,VWS V14.01,2013-03-27 23:28:00,
2013-03-27 16:30:00,46.5,42.2,29.86,West,265,18.0,19.0,85,0.06,,---,0.06,VWS V14.01,2013-03-27 23:30:00,
2013-03-27 16:32:00,46.5,41.6,29.86,West,267,13.0,18.0,83,0.06,,---,0.06,VWS V14.01,2013-03-27 23:32:00,
2013-03-27 16:37:00,47.3,42.1,29.86,West,281,10.0,18.0,82,0.06,,---,0.06,VWS V14.01,2013-03-27 23:37:00,
2013-03-27 16:42:00,48.3,43.1,29.86,WNW,283,7.0,18.0,82,0.06,,---,0.06,VWS V14.01,2013-03-27 23:42:00,
2013-03-27 16:45:00,48.8,43.2,29.85,WNW,283,6.0,18.0,81,0.06,,---,0.06,VWS V14.01,2013-03-27 23:45:00,
2013-03-27 16:47:00,49.2,44.0,29.85,WNW,298,4.0,10.0,82,0.06,,---,0.06,VWS V14.01,2013-03-27 23:47:00,
2013-03-27 16:52:00,50.0,44.4,29.86,NW,322,7.0,10.0,81,0.06,,---,0.06,VWS V14.01,2013-03-27 23:52:00,
2013-03-27 16:57:00,50.3,43.0,29.85,WNW,296,10.0,12.0,76,0.06,,---,0.06,VWS V14.01,2013-03-27 23:57:00,
2013-03-27 17:00:00,50.4,42.4,29.85,WNW,284,7.0,12.0,74,0.06,,---,0.06,VWS V14.01,2013-03-28 00:00:00,
2013-03-27 17:02:00,50.5,42.9,29.85,WNW,286,4.0,11.0,75,0.06,,---,0.06,VWS V14.01,2013-03-28 00:02:00,
2013-03-27 17:07:00,50.6,42.6,29.85,NW,325,9.0,12.0,74,0.06,,---,0.06,VWS V14.01,2013-03-28 00:07:00,
2013-03-27 17:12:00,50.6,42.6,29.85,NW,324,4.0,12.0,74,0.06,,---,0.06,VWS V14.01,2013-03-28 00:12:00,
2013-03-27 17:15:00,50.6,42.3,29.85,NW,306,5.0,12.0,73,0.06,,---,0.06,VWS V14.01,2013-03-28 00:15:00,
2013-03-27 17:17:00,50.7,42.4,29.86,NW,314,2.0,8.0,73,0.03,,---,0.06,VWS V14.01,2013-03-28 00:17:00,
2013-03-27 17:22:00,50.6,42.6,29.85,WNW,296,3.0,8.0,74,0.03,,---,0.06,VWS V14.01,2013-03-28 00:22:00,
2013-03-27 17:27:00,50.3,43.0,29.86,NW,317,0.0,8.0,76,0.03,,---,0.06,VWS V14.01,2013-03-28 00:27:00,
2013-03-27 17:30:00,50.2,43.3,29.86,NW,323,0.0,8.0,77,0.03,,---,0.06,VWS V14.01,2013-03-28 00:30:00,
2013-03-27 17:32:00,50.2,43.6,29.85,NW,319,4.0,4.0,78,0.00,,---,0.06,VWS V14.01,2013-03-28 00:32:00,
2013-03-27 17:37:00,50.6,44.3,29.85,NW,324,5.0,7.0,79,0.00,,---,0.06,VWS V14.01,2013-03-28 00:37:00,
2013-03-27 17:42:00,50.9,44.0,29.85,NW,315,5.0,7.0,77,0.00,,---,0.06,VWS V14.01,2013-03-28 00:42:00,
2013-03-27 17:45:00,51.1,43.8,29.86,NNW,330,5.0,7.0,76,0.00,,---,0.06,VWS V14.01,2013-03-28 00:45:00,
2013-03-27 17:47:00,51.2,43.9,29.86,NW,321,5.0,7.0,76,0.00,,---,0.06,VWS V14.01,2013-03-28 00:47:00,
2013-03-27 17:52:00,51.3,43.7,29.85,NW,324,0.0,7.0,75,0.00,,---,0.06,VWS V14.01,2013-03-28 00:52:00,
2013-03-27 17:57:00,51.2,42.9,29.85,NW,311,6.0,7.0,73,0.00,,---,0.06,VWS V14.01,2013-03-28 00:57:00,
2013-03-27 18:00:00,51.1,42.4,29.85,NW,307,3.0,9.0,72,0.00,,---,0.06,VWS V14.01,2013-03-28 01:00:00,
2013-03-27 18:02:00,51.1,43.1,29.86,WNW,300,3.0,4.0,74,0.00,,---,0.06,VWS V14.01,2013-03-28 01:02:00,
2013-03-27 18:07:00,51.0,43.0,29.86,WNW,302,0.0,4.0,74,0.00,,---,0.06,VWS V14.01,2013-03-28 01:07:00,
2013-03-27 18:12:00,50.9,42.6,29.86,WNW,302,2.0,7.0,73,0.00,,---,0.06,VWS V14.01,2013-03-28 01:12:00,
2013-03-27 18:15:00,50.8,42.5,29.86,WNW,302,0.0,7.0,73,0.00,,---,0.06,VWS V14.01,2013-03-28 01:15:00,
2013-03-27 18:17:00,50.7,42.4,29.86,NW,309,0.0,0.0,73,0.00,,---,0.06,VWS V14.01,2013-03-28 01:17:00,
2013-03-27 18:22:00,50.6,43.0,29.86,NW,307,0.0,4.0,75,0.00,,---,0.06,VWS V14.01,2013-03-28 01:22:00,
2013-03-27 18:27:00,50.5,42.9,29.86,NW,307,0.0,4.0,75,0.00,,---,0.06,VWS V14.01,2013-03-28 01:27:00,
2013-03-27 18:30:00,50.5,42.5,29.86,WNW,288,0.0,4.0,74,0.00,,---,0.06,VWS V14.01,2013-03-28 01:30:00,
2013-03-27 18:32:00,50.5,42.9,29.86,WNW,288,0.0,0.0,75,0.00,,---,0.06,VWS V14.01,2013-03-28 01:32:00,
2013-03-27 18:37:00,50.6,43.0,29.86,WNW,288,0.0,0.0,75,0.00,,---,0.06,VWS V14.01,2013-03-28 01:37:00,
2013-03-27 18:42:00,50.6,43.3,29.87,WNW,288,0.0,0.0,76,0.00,,---,0.06,VWS V14.01,2013-03-28 01:42:00,
2013-03-27 18:45:00,50.6,43.3,29.87,WNW,288,0.0,0.0,76,0.00,,---,0.06,VWS V14.01,2013-03-28 01:45:00,
2013-03-27 18:47:00,50.6,43.7,29.87,WNW,288,0.0,0.0,77,0.00,,---,0.06,VWS V14.01,2013-03-28 01:47:00,
2013-03-27 18:52:00,50.5,43.6,29.87,WNW,288,0.0,0.0,77,0.00,,---,0.06,VWS V14.01,2013-03-28 01:52:00,
2013-03-27 18:57:00,50.4,43.5,29.88,WNW,288,0.0,0.0,77,0.00,,---,0.06,VWS V14.01,2013-03-28 01:57:00,
2013-03-27 19:00:00,50.4,43.1,29.88,WSW,249,0.0,0.0,76,0.00,,---,0.06,VWS V14.01,2013-03-28 02:00:00,
2013-03-27 19:02:00,50.5,42.5,29.88,WSW,248,0.0,0.0,74,0.00,,---,0.06,VWS V14.01,2013-03-28 02:02:00,
2013-03-27 19:07:00,50.7,43.1,29.88,WSW,248,0.0,0.0,75,0.00,,---,0.06,VWS V14.01,2013-03-28 02:07:00,
2013-03-27 19:12:00,50.6,44.3,29.89,WSW,248,0.0,0.0,79,0.00,,---,0.06,VWS V14.01,2013-03-28 02:12:00,
2013-03-27 19:15:00,50.4,44.5,29.89,WSW,248,0.0,0.0,80,0.00,,---,0.06,VWS V14.01,2013-03-28 02:15:00,
2013-03-27 19:17:00,50.1,44.5,29.89,WSW,238,0.0,0.0,81,0.00,,---,0.06,VWS V14.01,2013-03-28 02:17:00,
2013-03-27 19:22:00,49.7,43.5,29.89,ESE,122,0.0,5.0,79,0.00,,---,0.06,VWS V14.01,2013-03-28 02:22:00,
2013-03-27 19:27:00,49.8,43.6,29.89,ESE,122,0.0,5.0,79,0.00,,---,0.06,VWS V14.01,2013-03-28 02:27:00,
2013-03-27 19:30:00,49.8,43.2,29.89,ESE,122,0.0,5.0,78,0.00,,---,0.06,VWS V14.01,2013-03-28 02:30:00,
2013-03-27 19:32:00,49.8,43.2,29.89,NE,55,0.0,0.0,78,0.00,,---,0.06,VWS V14.01,2013-03-28 02:32:00,
2013-03-27 19:37:00,49.6,43.7,29.89,NE,55,0.0,3.0,80,0.00,,---,0.06,VWS V14.01,2013-03-28 02:37:00,
2013-03-27 19:42:00,49.4,43.5,29.89,NE,45,0.0,3.0,80,0.00,,---,0.06,VWS V14.01,2013-03-28 02:42:00,
2013-03-27 19:45:00,49.4,43.5,29.89,NE,45,0.0,3.0,80,0.00,,---,0.06,VWS V14.01,2013-03-28 02:45:00,
2013-03-27 19:47:00,49.5,43.3,29.89,NE,45,0.0,0.0,79,0.00,,---,0.06,VWS V14.01,2013-03-28 02:47:00,
2013-03-27 19:52:00,49.6,43.7,29.89,NNE,21,1.0,1.0,80,0.00,,---,0.06,VWS V14.01,2013-03-28 02:52:00,
2013-03-27 19:57:00,49.6,42.7,29.89,NNE,21,0.0,1.0,77,0.00,,---,0.06,VWS V14.01,2013-03-28 02:57:00,
2013-03-27 20:00:00,49.6,42.7,29.89,NNE,21,0.0,1.0,77,0.00,,---,0.06,VWS V14.01,2013-03-28 03:00:00,
2013-03-27 20:02:00,49.6,42.7,29.89,NNE,21,0.0,0.0,77,0.00,,---,0.06,VWS V14.01,2013-03-28 03:02:00,
2013-03-27 20:07:00,49.5,42.3,29.90,NNE,21,0.0,0.0,76,0.00,,---,0.06,VWS V14.01,2013-03-28 03:07:00,
2013-03-27 20:12:00,49.5,42.6,29.90,NNE,21,0.0,0.0,77,0.00,,---,0.06,VWS V14.01,2013-03-28 03:12:00,
2013-03-27 20:15:00,49.4,42.8,29.90,NNE,21,0.0,0.0,78,0.00,,---,0.06,VWS V14.01,2013-03-28 03:15:00,
2013-03-27 20:17:00,49.3,42.1,29.90,NNE,21,0.0,0.0,76,0.00,,---,0.06,VWS V14.01,2013-03-28 03:17:00,
2013-03-27 20:22:00,49.3,42.7,29.90,NNE,21,0.0,0.0,78,0.00,,---,0.06,VWS V14.01,2013-03-28 03:22:00,
2013-03-27 20:27:00,49.2,42.6,29.90,NNE,21,0.0,0.0,78,0.00,,---,0.06,VWS V14.01,2013-03-28 03:27:00,
2013-03-27 20:30:00,49.2,42.6,29.90,NNE,21,0.0,0.0,78,0.00,,---,0.06,VWS V14.01,2013-03-28 03:30:00,
2013-03-27 20:32:00,49.1,42.9,29.90,NNE,21,0.0,0.0,79,0.00,,---,0.06,VWS V14.01,2013-03-28 03:32:00,
2013-03-27 20:37:00,48.7,43.1,29.90,NNE,21,0.0,0.0,81,0.00,,---,0.06,VWS V14.01,2013-03-28 03:37:00,
2013-03-27 20:42:00,48.3,42.8,29.90,NNE,21,0.0,0.0,81,0.00,,---,0.06,VWS V14.01,2013-03-28 03:42:00,
2013-03-27 20:45:00,48.2,42.7,29.91,NNE,21,0.0,0.0,81,0.00,,---,0.06,VWS V14.01,2013-03-28 03:45:00,
2013-03-27 20:47:00,48.2,42.7,29.91,NNE,21,0.0,0.0,81,0.00,,---,0.06,VWS V14.01,2013-03-28 03:47:00,
2013-03-27 20:52:00,48.1,42.9,29.91,NNE,21,0.0,0.0,82,0.00,,---,0.06,VWS V14.01,2013-03-28 03:52:00,
2013-03-27 20:57:00,47.7,42.8,29.91,NNE,19,0.0,3.0,83,0.00,,---,0.06,VWS V14.01,2013-03-28 03:57:00,
2013-03-27 21:00:00,47.5,42.9,29.91,NNE,20,0.0,3.0,84,0.00,,---,0.06,VWS V14.01,2013-03-28 04:00:00,
2013-03-27 21:05:00,47.1,42.8,29.91,SW,229,2.0,3.0,85,0.00,,---,0.06,VWS V14.01,2013-03-28 04:05:00,
2013-03-27 21:10:00,47.2,42.6,29.91,SW,217,5.0,5.0,84,0.00,,---,0.06,VWS V14.01,2013-03-28 04:10:00,
2013-03-27 21:15:00,47.4,42.2,29.91,WNW,284,0.0,0.0,82,0.00,,---,0.06,VWS V14.01,2013-03-28 04:15:00,
2013-03-27 21:20:00,47.6,42.1,29.92,NW,307,8.0,10.0,81,0.00,,---,0.06,VWS V14.01,2013-03-28 04:20:00,
2013-03-27 21:25:00,47.5,41.7,29.92,WNW,302,6.0,10.0,80,0.00,,---,0.06,VWS V14.01,2013-03-28 04:25:00,
2013-03-27 21:30:00,47.2,41.4,29.92,NW,315,3.0,4.0,80,0.00,,---,0.06,VWS V14.01,2013-03-28 04:30:00,
2013-03-27 21:35:00,47.0,41.5,29.92,WNW,303,2.0,6.0,81,0.00,,---,0.06,VWS V14.01,2013-03-28 04:35:00,
2013-03-27 21:40:00,46.6,41.1,29.92,WNW,290,8.0,8.0,81,0.00,,---,0.06,VWS V14.01,2013-03-28 04:40:00,
2013-03-27 21:45:00,46.4,41.2,29.93,WNW,291,5.0,6.0,82,0.00,,---,0.06,VWS V14.01,2013-03-28 04:45:00,
2013-03-27 21:50:00,46.3,41.1,29.93,WNW,285,5.0,8.0,82,0.00,,---,0.06,VWS V14.01,2013-03-28 04:50:00,
2013-03-27 21:55:00,46.1,40.9,29.93,WNW,290,5.0,11.0,82,0.00,,---,0.06,VWS V14.01,2013-03-28 04:55:00,
2013-03-27 22:00:00,45.9,40.7,29.93,WNW,294,5.0,5.0,82,0.00,,---,0.06,VWS V14.01,2013-03-28 05:00:00,
2013-03-27 22:05:00,45.7,40.8,29.93,WNW,292,6.0,9.0,83,0.00,,---,0.06,VWS V14.01,2013-03-28 05:05:00,
2013-03-27 22:10:00,45.4,40.9,29.93,WNW,288,2.0,9.0,84,0.00,,---,0.06,VWS V14.01,2013-03-28 05:10:00,
2013-03-27 22:15:00,45.1,40.6,29.93,WNW,285,3.0,3.0,84,0.00,,---,0.06,VWS V14.01,2013-03-28 05:15:00,
2013-03-27 22:20:00,45.2,41.0,29.93,WNW,286,0.0,5.0,85,0.00,,---,0.06,VWS V14.01,2013-03-28 05:20:00,
2013-03-27 22:25:00,45.1,40.9,29.93,WNW,286,0.0,5.0,85,0.00,,---,0.06,VWS V14.01,2013-03-28 05:25:00,
2013-03-27 22:30:00,45.1,40.9,29.93,WNW,287,0.0,0.0,85,0.00,,---,0.06,VWS V14.01,2013-03-28 05:30:00,
2013-03-27 22:35:00,45.2,41.0,29.93,NW,315,0.0,7.0,85,0.00,,---,0.06,VWS V14.01,2013-03-28 05:35:00,
2013-03-27 22:40:00,45.2,41.0,29.93,NNW,333,3.0,7.0,85,0.00,,---,0.06,VWS V14.01,2013-03-28 05:40:00,
2013-03-27 22:45:00,45.3,40.8,29.93,NNW,338,0.0,0.0,84,0.00,,---,0.06,VWS V14.01,2013-03-28 05:45:00,
2013-03-27 22:50:00,45.2,40.7,29.93,North,350,0.0,0.0,84,0.00,,---,0.06,VWS V14.01,2013-03-28 05:50:00,
2013-03-27 22:55:00,45.0,40.5,29.94,North,5,0.0,0.0,84,0.00,,---,0.06,VWS V14.01,2013-03-28 05:55:00,
2013-03-27 23:00:00,45.0,40.8,29.94,North,360,0.0,0.0,85,0.00,,---,0.06,VWS V14.01,2013-03-28 06:00:00,
2013-03-27 23:05:00,44.8,40.6,29.94,North,360,0.0,0.0,85,0.00,,---,0.06,VWS V14.01,2013-03-28 06:05:00,
2013-03-27 23:10:00,44.4,40.2,29.94,North,5,0.0,3.0,85,0.00,,---,0.06,VWS V14.01,2013-03-28 06:10:00,
2013-03-27 23:15:00,43.9,40.0,29.94,North,360,0.0,0.0,86,0.00,,---,0.06,VWS V14.01,2013-03-28 06:15:00,
2013-03-27 23:20:00,43.3,39.7,29.94,NNE,30,0.0,4.0,87,0.00,,---,0.06,VWS V14.01,2013-03-28 06:20:00,
2013-03-27 23:25:00,43.0,39.7,29.94,NNE,30,0.0,4.0,88,0.00,,---,0.06,VWS V14.01,2013-03-28 06:25:00,
2013-03-27 23:30:00,42.6,39.6,29.95,NNE,30,0.0,0.0,89,0.00,,---,0.06,VWS V14.01,2013-03-28 06:30:00,
2013-03-27 23:35:00,42.3,39.3,29.95,NNE,29,0.0,0.0,89,0.00,,---,0.06,VWS V14.01,2013-03-28 06:35:00,
2013-03-27 23:40:00,42.1,39.4,29.95,NNE,30,2.0,2.0,90,0.00,,---,0.06,VWS V14.01,2013-03-28 06:40:00,
2013-03-27 23:45:00,42.4,40.0,29.95,NE,38,3.0,3.0,91,0.00,,---,0.06,VWS V14.01,2013-03-28 06:45:00,
2013-03-27 23:50:00,42.9,40.5,29.95,NE,39,0.0,4.0,91,0.00,,---,0.06,VWS V14.01,2013-03-28 06:50:00,
2013-03-27 23:55:00,42.8,40.1,29.95,NE,38,0.0,4.0,90,0.00,,---,0.06,VWS V14.01,2013-03-28 06:55:00,